DLH9925 LIRF-EDDF
Flight info
| Callsign | DLH9925 |
|---|---|
| Flight time | 1h 4m |
| Altitude | 39000 |
| Route | SOSIV7B SOVAN DCT AMTEL DCT BORMI DCT OZE DCT NAXAV DCT UNIMI L12 MOGTI Q163 ETASA T163 SPESA SPESA4B |
| Aircraft | A20N/L-V/N |
Departure
| Time | 2026-05-06 14:14 |
|---|---|
| Airport | Rome–Fiumicino Leonardo da Vinci International Airport (LIRF) |
Arrival
| Time | 2026-05-06 15:18 |
|---|---|
| Airport | Frankfurt Main Airport (EDDF) |
| Time | Latitude | Longitude | Altitude | Speed | Heading |
|---|---|---|---|---|---|
| 2026-05-06 14:04 | 41.79729 | 12.24839 | 14 ft | 0 kts | 250° |
| 2026-05-06 14:05 | 41.79733 | 12.24853 | 14 ft | 2 kts | 251° |
| 2026-05-06 14:05 | 41.79738 | 12.24874 | 14 ft | 2 kts | 256° |
| 2026-05-06 14:06 | 41.79741 | 12.24896 | 15 ft | 2 kts | 262° |
| 2026-05-06 14:06 | 41.79742 | 12.24917 | 15 ft | 2 kts | 277° |
| 2026-05-06 14:06 | 41.79737 | 12.24938 | 16 ft | 2 kts | 317° |
| 2026-05-06 14:06 | 41.79727 | 12.24947 | 14 ft | 1 kts | 339° |
| 2026-05-06 14:07 | 41.79729 | 12.24945 | 15 ft | 2 kts | 339° |
| 2026-05-06 14:07 | 41.79734 | 12.24943 | 15 ft | 0 kts | 339° |
| 2026-05-06 14:07 | 41.79753 | 12.24933 | 14 ft | 7 kts | 339° |
| 2026-05-06 14:08 | 41.79829 | 12.24893 | 14 ft | 13 kts | 340° |
| 2026-05-06 14:08 | 41.79929 | 12.24845 | 14 ft | 13 kts | 339° |
| 2026-05-06 14:08 | 41.80048 | 12.24775 | 14 ft | 22 kts | 317° |
| 2026-05-06 14:08 | 41.80023 | 12.24568 | 14 ft | 27 kts | 251° |
| 2026-05-06 14:09 | 41.79949 | 12.24302 | 14 ft | 30 kts | 250° |
| 2026-05-06 14:09 | 41.79954 | 12.24051 | 14 ft | 22 kts | 334° |
| 2026-05-06 14:09 | 41.79979 | 12.24028 | 14 ft | 5 kts | 304° |
| 2026-05-06 14:09 | 41.79970 | 12.23938 | 13 ft | 15 kts | 251° |
| 2026-05-06 14:10 | 41.79923 | 12.23774 | 15 ft | 22 kts | 249° |
| 2026-05-06 14:10 | 41.79998 | 12.23619 | 16 ft | 26 kts | 343° |
| 2026-05-06 14:10 | 41.80180 | 12.23540 | 15 ft | 27 kts | 341° |
| 2026-05-06 14:10 | 41.80378 | 12.23457 | 17 ft | 25 kts | 342° |
| 2026-05-06 14:11 | 41.80564 | 12.23379 | 17 ft | 32 kts | 342° |
| 2026-05-06 14:11 | 41.80785 | 12.23285 | 15 ft | 33 kts | 342° |
| 2026-05-06 14:11 | 41.80821 | 12.23136 | 14 ft | 14 kts | 252° |
| 2026-05-06 14:11 | 41.80819 | 12.23128 | 16 ft | 0 kts | 251° |
| 2026-05-06 14:12 | 41.80818 | 12.23125 | 15 ft | 3 kts | 251° |
| 2026-05-06 14:12 | 41.80800 | 12.23055 | 16 ft | 13 kts | 251° |
| 2026-05-06 14:12 | 41.80732 | 12.22986 | 14 ft | 15 kts | 177° |
| 2026-05-06 14:13 | 41.80707 | 12.22993 | 14 ft | 3 kts | 159° |
| 2026-05-06 14:13 | 41.80438 | 12.23106 | 15 ft | 75 kts | 163° |
| 2026-05-06 14:13 | 41.79752 | 12.23396 | 15 ft | 128 kts | 162° |
| 2026-05-06 14:13 | 41.78810 | 12.23774 | 306 ft | 144 kts | 162° |
| 2026-05-06 14:14 | 41.77828 | 12.24196 | 699 ft | 154 kts | 162° |
| 2026-05-06 14:14 | 41.76790 | 12.24679 | 1166 ft | 166 kts | 161° |
| 2026-05-06 14:14 | 41.75663 | 12.24951 | 1824 ft | 164 kts | 186° |
| 2026-05-06 14:14 | 41.74568 | 12.24372 | 2243 ft | 180 kts | 215° |
| 2026-05-06 14:15 | 41.73764 | 12.22932 | 2476 ft | 212 kts | 247° |
| 2026-05-06 14:15 | 41.73714 | 12.20884 | 3128 ft | 232 kts | 282° |
| 2026-05-06 14:15 | 41.74554 | 12.19016 | 4102 ft | 241 kts | 309° |
| 2026-05-06 14:15 | 41.75830 | 12.17468 | 4872 ft | 260 kts | 317° |
| 2026-05-06 14:16 | 41.77298 | 12.15936 | 5693 ft | 272 kts | 319° |
| 2026-05-06 14:16 | 41.78804 | 12.14374 | 6733 ft | 276 kts | 318° |
| 2026-05-06 14:16 | 41.80317 | 12.12748 | 7748 ft | 280 kts | 317° |
| 2026-05-06 14:16 | 41.81834 | 12.11066 | 8800 ft | 283 kts | 316° |
| 2026-05-06 14:17 | 41.83348 | 12.09354 | 9844 ft | 287 kts | 316° |
| 2026-05-06 14:17 | 41.84984 | 12.07784 | 10573 ft | 305 kts | 329° |
| 2026-05-06 14:17 | 41.87103 | 12.06900 | 10978 ft | 335 kts | 351° |
| 2026-05-06 14:17 | 41.89517 | 12.06657 | 11479 ft | 354 kts | 354° |
| 2026-05-06 14:18 | 41.91994 | 12.06455 | 12363 ft | 358 kts | 354° |
| 2026-05-06 14:18 | 41.94470 | 12.06247 | 13259 ft | 363 kts | 353° |
| 2026-05-06 14:18 | 41.97017 | 12.06018 | 14102 ft | 368 kts | 353° |
| 2026-05-06 14:18 | 41.99602 | 12.05773 | 14819 ft | 376 kts | 353° |
| 2026-05-06 14:19 | 42.02231 | 12.05515 | 15584 ft | 381 kts | 353° |
| 2026-05-06 14:19 | 42.06550 | 12.05088 | 16801 ft | 390 kts | 353° |
| 2026-05-06 14:19 | 42.17282 | 12.07686 | 19496 ft | 419 kts | 39° |
| 2026-05-06 14:19 | 42.20835 | 12.15113 | 20727 ft | 425 kts | 78° |
| 2026-05-06 14:20 | 42.21228 | 12.19005 | 21316 ft | 426 kts | 90° |
| 2026-05-06 14:20 | 42.21607 | 12.23007 | 21879 ft | 435 kts | 79° |
| 2026-05-06 14:20 | 42.22688 | 12.26872 | 22435 ft | 445 kts | 63° |
| 2026-05-06 14:20 | 42.24464 | 12.30314 | 23009 ft | 451 kts | 47° |
| 2026-05-06 14:21 | 42.26829 | 12.33123 | 23565 ft | 454 kts | 32° |
| 2026-05-06 14:21 | 42.29625 | 12.35103 | 24049 ft | 454 kts | 17° |
| 2026-05-06 14:21 | 42.32667 | 12.36136 | 24557 ft | 450 kts | 2° |
| 2026-05-06 14:21 | 42.35743 | 12.36186 | 25066 ft | 444 kts | 348° |
| 2026-05-06 14:22 | 42.38724 | 12.35267 | 25569 ft | 435 kts | 333° |
| 2026-05-06 14:22 | 42.41429 | 12.33487 | 26082 ft | 429 kts | 323° |
| 2026-05-06 14:22 | 42.44057 | 12.31508 | 26563 ft | 436 kts | 327° |
| 2026-05-06 14:22 | 42.46863 | 12.29843 | 27056 ft | 444 kts | 333° |
| 2026-05-06 14:23 | 42.49797 | 12.28547 | 27470 ft | 453 kts | 338° |
| 2026-05-06 14:23 | 42.52871 | 12.27474 | 27971 ft | 457 kts | 340° |
| 2026-05-06 14:23 | 42.55991 | 12.26515 | 28410 ft | 461 kts | 341° |
| 2026-05-06 14:23 | 42.59138 | 12.25591 | 28813 ft | 465 kts | 341° |
| 2026-05-06 14:24 | 42.62317 | 12.24663 | 29221 ft | 467 kts | 341° |
| 2026-05-06 14:24 | 42.65467 | 12.23737 | 29621 ft | 470 kts | 341° |
| 2026-05-06 14:24 | 42.68674 | 12.22786 | 30025 ft | 473 kts | 341° |
| 2026-05-06 14:24 | 42.71907 | 12.21822 | 30377 ft | 475 kts | 340° |
| 2026-05-06 14:25 | 42.75142 | 12.20857 | 30777 ft | 477 kts | 340° |
| 2026-05-06 14:25 | 42.78399 | 12.19882 | 31147 ft | 479 kts | 340° |
| 2026-05-06 14:25 | 42.81657 | 12.18906 | 31616 ft | 478 kts | 340° |
| 2026-05-06 14:25 | 42.84865 | 12.17945 | 32101 ft | 477 kts | 340° |
| 2026-05-06 14:26 | 42.88112 | 12.16972 | 32621 ft | 475 kts | 339° |
| 2026-05-06 14:26 | 42.91334 | 12.16004 | 33116 ft | 473 kts | 339° |
| 2026-05-06 14:26 | 42.94543 | 12.15038 | 33542 ft | 472 kts | 339° |
| 2026-05-06 14:26 | 42.97751 | 12.14071 | 34002 ft | 471 kts | 339° |
| 2026-05-06 14:27 | 43.00946 | 12.13104 | 34427 ft | 469 kts | 339° |
| 2026-05-06 14:27 | 43.04129 | 12.12141 | 34808 ft | 468 kts | 339° |
| 2026-05-06 14:27 | 43.07310 | 12.11177 | 35156 ft | 467 kts | 340° |
| 2026-05-06 14:27 | 43.10442 | 12.10226 | 35489 ft | 466 kts | 340° |
| 2026-05-06 14:28 | 43.13613 | 12.09262 | 35806 ft | 465 kts | 340° |
| 2026-05-06 14:28 | 43.16777 | 12.08299 | 36120 ft | 465 kts | 340° |
| 2026-05-06 14:28 | 43.19938 | 12.07336 | 36447 ft | 464 kts | 341° |
| 2026-05-06 14:28 | 43.23085 | 12.06374 | 36781 ft | 463 kts | 341° |
| 2026-05-06 14:29 | 43.26233 | 12.05413 | 37087 ft | 462 kts | 341° |
| 2026-05-06 14:29 | 43.29377 | 12.04452 | 37388 ft | 462 kts | 341° |
| 2026-05-06 14:29 | 43.32491 | 12.03500 | 37619 ft | 463 kts | 341° |
| 2026-05-06 14:29 | 43.35646 | 12.02536 | 37875 ft | 463 kts | 341° |
| 2026-05-06 14:30 | 43.38796 | 12.01573 | 38178 ft | 462 kts | 341° |
| 2026-05-06 14:30 | 43.41937 | 12.00611 | 38473 ft | 461 kts | 342° |
| 2026-05-06 14:30 | 43.45025 | 11.99664 | 38706 ft | 460 kts | 342° |
| 2026-05-06 14:30 | 43.48158 | 11.98703 | 38894 ft | 460 kts | 342° |
| 2026-05-06 14:31 | 43.54420 | 11.96779 | 38942 ft | 459 kts | 342° |
| 2026-05-06 14:31 | 43.60657 | 11.94858 | 38953 ft | 459 kts | 342° |
| 2026-05-06 14:32 | 43.66861 | 11.92944 | 38940 ft | 459 kts | 341° |
| 2026-05-06 14:32 | 43.73102 | 11.91011 | 38943 ft | 459 kts | 342° |
| 2026-05-06 14:33 | 43.79352 | 11.89075 | 38939 ft | 459 kts | 342° |
| 2026-05-06 14:33 | 43.85569 | 11.87144 | 38942 ft | 463 kts | 341° |
| 2026-05-06 14:34 | 43.91872 | 11.85182 | 38928 ft | 462 kts | 341° |
| 2026-05-06 14:34 | 43.98147 | 11.83226 | 38921 ft | 462 kts | 341° |
| 2026-05-06 14:35 | 44.04402 | 11.81271 | 38911 ft | 467 kts | 341° |
| 2026-05-06 14:35 | 44.10752 | 11.79285 | 38905 ft | 465 kts | 341° |
| 2026-05-06 14:36 | 44.17087 | 11.77296 | 38907 ft | 467 kts | 341° |
| 2026-05-06 14:36 | 44.23400 | 11.75308 | 38906 ft | 467 kts | 341° |
| 2026-05-06 14:37 | 44.29763 | 11.73302 | 38927 ft | 467 kts | 341° |
| 2026-05-06 14:37 | 44.36103 | 11.71299 | 38920 ft | 466 kts | 341° |
| 2026-05-06 14:38 | 44.42388 | 11.69308 | 38905 ft | 465 kts | 341° |
| 2026-05-06 14:38 | 44.48738 | 11.67289 | 38895 ft | 469 kts | 341° |
| 2026-05-06 14:39 | 44.55103 | 11.65264 | 38893 ft | 468 kts | 341° |
| 2026-05-06 14:39 | 44.61459 | 11.63238 | 38888 ft | 466 kts | 341° |
| 2026-05-06 14:40 | 44.67733 | 11.61233 | 38887 ft | 465 kts | 341° |
| 2026-05-06 14:40 | 44.74050 | 11.59208 | 38892 ft | 465 kts | 341° |
| 2026-05-06 14:41 | 44.80374 | 11.57178 | 38903 ft | 465 kts | 341° |
| 2026-05-06 14:41 | 44.86626 | 11.55167 | 38901 ft | 463 kts | 341° |
| 2026-05-06 14:42 | 44.92928 | 11.53134 | 38902 ft | 464 kts | 341° |
| 2026-05-06 14:42 | 44.99229 | 11.51096 | 38902 ft | 464 kts | 341° |
| 2026-05-06 14:43 | 45.05541 | 11.49051 | 38887 ft | 466 kts | 341° |
| 2026-05-06 14:43 | 45.11840 | 11.47006 | 38888 ft | 467 kts | 341° |
| 2026-05-06 14:44 | 45.18184 | 11.44942 | 38892 ft | 467 kts | 341° |
| 2026-05-06 14:45 | 45.27727 | 11.41826 | 38880 ft | 469 kts | 341° |
| 2026-05-06 14:45 | 45.34106 | 11.39739 | 38887 ft | 470 kts | 341° |
| 2026-05-06 14:46 | 45.40457 | 11.37656 | 38886 ft | 471 kts | 341° |
| 2026-05-06 14:46 | 45.45769 | 11.35908 | 38890 ft | 471 kts | 341° |
| 2026-05-06 14:47 | 45.52179 | 11.33797 | 38896 ft | 471 kts | 341° |
| 2026-05-06 14:47 | 45.58542 | 11.31696 | 38897 ft | 472 kts | 341° |
| 2026-05-06 14:48 | 45.64938 | 11.29579 | 38894 ft | 470 kts | 341° |
| 2026-05-06 14:48 | 45.71306 | 11.27466 | 38896 ft | 469 kts | 341° |
| 2026-05-06 14:49 | 45.92874 | 11.20269 | 38921 ft | 470 kts | 341° |
| 2026-05-06 14:49 | 46.05850 | 11.17936 | 38938 ft | 481 kts | 1° |
| 2026-05-06 14:49 | 46.09726 | 11.18768 | 38935 ft | 484 kts | 9° |
| 2026-05-06 14:50 | 46.16308 | 11.21000 | 38948 ft | 485 kts | 9° |
| 2026-05-06 14:50 | 46.28646 | 11.25166 | 38890 ft | 485 kts | 10° |
| 2026-05-06 14:51 | 46.44577 | 11.31260 | 38873 ft | 484 kts | 12° |
| 2026-05-06 14:51 | 46.47868 | 11.32122 | 38875 ft | 476 kts | 359° |
| 2026-05-06 14:51 | 46.51154 | 11.31992 | 38866 ft | 468 kts | 346° |
| 2026-05-06 14:51 | 46.54285 | 11.30892 | 38865 ft | 458 kts | 334° |
| 2026-05-06 14:52 | 46.57112 | 11.28891 | 38885 ft | 449 kts | 321° |
| 2026-05-06 14:52 | 46.62030 | 11.23404 | 38872 ft | 450 kts | 319° |
| 2026-05-06 14:53 | 46.67438 | 11.18753 | 38879 ft | 454 kts | 328° |
| 2026-05-06 14:53 | 46.73199 | 11.14858 | 38865 ft | 456 kts | 330° |
| 2026-05-06 14:54 | 46.79011 | 11.11110 | 38855 ft | 458 kts | 331° |
| 2026-05-06 14:54 | 46.87429 | 11.05643 | 38843 ft | 458 kts | 331° |
| 2026-05-06 14:55 | 47.10666 | 10.90396 | 38815 ft | 459 kts | 331° |
| 2026-05-06 14:55 | 47.34049 | 10.74915 | 38791 ft | 460 kts | 332° |
| 2026-05-06 14:56 | 47.56300 | 10.56899 | 38857 ft | 462 kts | 326° |
| 2026-05-06 14:56 | 47.78602 | 10.37800 | 38843 ft | 462 kts | 326° |
| 2026-05-06 14:57 | 48.00869 | 10.18530 | 38806 ft | 459 kts | 326° |
| 2026-05-06 14:57 | 48.22841 | 9.99322 | 38783 ft | 460 kts | 326° |
| 2026-05-06 14:58 | 48.45155 | 9.79618 | 38786 ft | 463 kts | 326° |
| 2026-05-06 14:58 | 48.67260 | 9.59905 | 36352 ft | 459 kts | 324° |
| 2026-05-06 14:58 | 48.78166 | 9.50109 | 33280 ft | 465 kts | 323° |
| 2026-05-06 14:59 | 48.89437 | 9.39898 | 29702 ft | 474 kts | 325° |
| 2026-05-06 14:59 | 49.00466 | 9.29873 | 27212 ft | 449 kts | 326° |
| 2026-05-06 14:59 | 49.10965 | 9.20267 | 24976 ft | 429 kts | 327° |
| 2026-05-06 14:59 | 49.21637 | 9.13574 | 22640 ft | 416 kts | 0° |
| 2026-05-06 15:00 | 49.32834 | 9.17225 | 20043 ft | 404 kts | 12° |
| 2026-05-06 15:00 | 49.43648 | 9.20814 | 17767 ft | 389 kts | 11° |
| 2026-05-06 15:00 | 49.53926 | 9.24174 | 15425 ft | 376 kts | 11° |
| 2026-05-06 15:00 | 49.64001 | 9.27483 | 13196 ft | 364 kts | 11° |
| 2026-05-06 15:01 | 49.73731 | 9.30692 | 11072 ft | 349 kts | 10° |
| 2026-05-06 15:01 | 49.82915 | 9.33652 | 9822 ft | 312 kts | 1° |
| 2026-05-06 15:01 | 49.88199 | 9.26120 | 8434 ft | 277 kts | 280° |
| 2026-05-06 15:01 | 49.90059 | 9.14758 | 6884 ft | 271 kts | 284° |
| 2026-05-06 15:02 | 49.92129 | 9.03889 | 5427 ft | 261 kts | 283° |
| 2026-05-06 15:02 | 49.94468 | 8.93292 | 5003 ft | 268 kts | 307° |
| 2026-05-06 15:02 | 50.01727 | 8.91787 | 5010 ft | 282 kts | 21° |
| 2026-05-06 15:02 | 50.04835 | 8.98690 | 5004 ft | 282 kts | 74° |
| 2026-05-06 15:03 | 50.05414 | 9.01610 | 4855 ft | 281 kts | 74° |
| 2026-05-06 15:03 | 50.06013 | 9.04517 | 4511 ft | 280 kts | 73° |
| 2026-05-06 15:03 | 50.06637 | 9.07368 | 4151 ft | 279 kts | 72° |
| 2026-05-06 15:03 | 50.07289 | 9.10235 | 3882 ft | 278 kts | 71° |
| 2026-05-06 15:04 | 50.07935 | 9.13033 | 3786 ft | 271 kts | 71° |
| 2026-05-06 15:04 | 50.08557 | 9.15707 | 3687 ft | 260 kts | 71° |
| 2026-05-06 15:04 | 50.09168 | 9.18314 | 3578 ft | 251 kts | 71° |
| 2026-05-06 15:04 | 50.09763 | 9.20853 | 3318 ft | 247 kts | 71° |
| 2026-05-06 15:05 | 50.10349 | 9.23363 | 3069 ft | 245 kts | 70° |
| 2026-05-06 15:05 | 50.10921 | 9.25834 | 2990 ft | 244 kts | 70° |
| 2026-05-06 15:05 | 50.11506 | 9.28349 | 2996 ft | 247 kts | 70° |
| 2026-05-06 15:05 | 50.12085 | 9.30854 | 2999 ft | 245 kts | 70° |
| 2026-05-06 15:06 | 50.12658 | 9.33329 | 3001 ft | 243 kts | 70° |
| 2026-05-06 15:06 | 50.13240 | 9.35852 | 2995 ft | 247 kts | 70° |
| 2026-05-06 15:06 | 50.13812 | 9.38332 | 2989 ft | 247 kts | 71° |
| 2026-05-06 15:06 | 50.14387 | 9.40819 | 2990 ft | 239 kts | 71° |
| 2026-05-06 15:07 | 50.15013 | 9.43230 | 2982 ft | 242 kts | 57° |
| 2026-05-06 15:07 | 50.16222 | 9.45030 | 2986 ft | 245 kts | 25° |
| 2026-05-06 15:07 | 50.19287 | 9.44888 | 2986 ft | 229 kts | 321° |
| 2026-05-06 15:08 | 50.20281 | 9.43067 | 2990 ft | 221 kts | 289° |
| 2026-05-06 15:08 | 50.20812 | 9.40072 | 2982 ft | 201 kts | 282° |
| 2026-05-06 15:08 | 50.22380 | 9.32842 | 2985 ft | 190 kts | 287° |
| 2026-05-06 15:08 | 50.22664 | 9.30871 | 3002 ft | 186 kts | 265° |
| 2026-05-06 15:09 | 50.22347 | 9.28890 | 3027 ft | 190 kts | 249° |
| 2026-05-06 15:09 | 50.21893 | 9.26985 | 2991 ft | 180 kts | 249° |
| 2026-05-06 15:09 | 50.21475 | 9.25206 | 3002 ft | 173 kts | 250° |
| 2026-05-06 15:09 | 50.20085 | 9.19220 | 2989 ft | 181 kts | 250° |
| 2026-05-06 15:10 | 50.19669 | 9.17429 | 2992 ft | 167 kts | 251° |
| 2026-05-06 15:10 | 50.18976 | 9.14059 | 3011 ft | 162 kts | 254° |
| 2026-05-06 15:10 | 50.17473 | 9.07422 | 3019 ft | 169 kts | 250° |
| 2026-05-06 15:10 | 50.16039 | 9.01391 | 2994 ft | 167 kts | 249° |
| 2026-05-06 15:11 | 50.15629 | 8.99667 | 2997 ft | 170 kts | 250° |
| 2026-05-06 15:11 | 50.15228 | 8.97987 | 2997 ft | 162 kts | 250° |
| 2026-05-06 15:11 | 50.14832 | 8.96320 | 3001 ft | 168 kts | 249° |
| 2026-05-06 15:11 | 50.14430 | 8.94630 | 2999 ft | 159 kts | 250° |
| 2026-05-06 15:12 | 50.14034 | 8.92968 | 3004 ft | 163 kts | 250° |
| 2026-05-06 15:12 | 50.13524 | 8.90832 | 2989 ft | 142 kts | 249° |
| 2026-05-06 15:12 | 50.12128 | 8.84974 | 2984 ft | 145 kts | 251° |
| 2026-05-06 15:12 | 50.10769 | 8.79271 | 2993 ft | 142 kts | 250° |
| 2026-05-06 15:13 | 50.10241 | 8.77061 | 3001 ft | 147 kts | 250° |
| 2026-05-06 15:13 | 50.09893 | 8.75604 | 2994 ft | 138 kts | 251° |
| 2026-05-06 15:13 | 50.09554 | 8.74138 | 2995 ft | 143 kts | 256° |
| 2026-05-06 15:13 | 50.09555 | 8.72630 | 2997 ft | 142 kts | 282° |
| 2026-05-06 15:14 | 50.10002 | 8.71248 | 3004 ft | 144 kts | 291° |
| 2026-05-06 15:14 | 50.10011 | 8.69756 | 2997 ft | 141 kts | 249° |
| 2026-05-06 15:14 | 50.09421 | 8.68474 | 2995 ft | 154 kts | 234° |
| 2026-05-06 15:14 | 50.08800 | 8.67181 | 3010 ft | 143 kts | 236° |
| 2026-05-06 15:15 | 50.08238 | 8.65949 | 3015 ft | 140 kts | 237° |
| 2026-05-06 15:15 | 50.07678 | 8.64718 | 2976 ft | 136 kts | 235° |
| 2026-05-06 15:15 | 50.07164 | 8.63524 | 2835 ft | 130 kts | 242° |
| 2026-05-06 15:15 | 50.06748 | 8.62245 | 2554 ft | 133 kts | 244° |
| 2026-05-06 15:16 | 50.06374 | 8.60895 | 2331 ft | 137 kts | 249° |
| 2026-05-06 15:16 | 50.06063 | 8.59494 | 2093 ft | 136 kts | 253° |
| 2026-05-06 15:16 | 50.05699 | 8.58053 | 1562 ft | 144 kts | 247° |
| 2026-05-06 15:16 | 50.05316 | 8.56634 | 1079 ft | 147 kts | 253° |
| 2026-05-06 15:17 | 50.05004 | 8.55155 | 691 ft | 140 kts | 252° |
| 2026-05-06 15:17 | 50.04680 | 8.53792 | 482 ft | 127 kts | 253° |
| 2026-05-06 15:17 | 50.04368 | 8.52503 | 372 ft | 120 kts | 252° |
| 2026-05-06 15:17 | 50.04143 | 8.51529 | 360 ft | 68 kts | 250° |
| 2026-05-06 15:18 | 50.04033 | 8.51131 | 351 ft | 29 kts | 237° |
| 2026-05-06 15:18 | 50.03914 | 8.50929 | 345 ft | 23 kts | 220° |
| 2026-05-06 15:18 | 50.03871 | 8.50876 | 353 ft | 0 kts | 219° |
| 2026-05-06 15:19 | 50.03870 | 8.50875 | 353 ft | 1 kts | 219° |
| 2026-05-06 15:19 | 50.03851 | 8.50853 | 350 ft | 5 kts | 213° |
| 2026-05-06 15:20 | 50.03812 | 8.50831 | 346 ft | 6 kts | 171° |
| 2026-05-06 15:20 | 50.03772 | 8.50893 | 346 ft | 10 kts | 109° |
| 2026-05-06 15:20 | 50.03740 | 8.51004 | 346 ft | 12 kts | 116° |
| 2026-05-06 15:20 | 50.03697 | 8.51138 | 350 ft | 16 kts | 116° |
| 2026-05-06 15:21 | 50.03649 | 8.51289 | 354 ft | 4 kts | 116° |
| 2026-05-06 15:22 | 50.03645 | 8.51301 | 359 ft | 0 kts | 116° |
| 2026-05-06 15:25 | 50.03640 | 8.51314 | 351 ft | 5 kts | 117° |
| 2026-05-06 15:25 | 50.03606 | 8.51419 | 360 ft | 17 kts | 117° |
| 2026-05-06 15:25 | 50.03535 | 8.51635 | 360 ft | 23 kts | 132° |
| 2026-05-06 15:26 | 50.03507 | 8.51787 | 361 ft | 19 kts | 94° |
| 2026-05-06 15:26 | 50.03518 | 8.51899 | 361 ft | 15 kts | 83° |
| 2026-05-06 15:26 | 50.03533 | 8.52104 | 371 ft | 20 kts | 84° |
| 2026-05-06 15:26 | 50.03548 | 8.52273 | 374 ft | 1 kts | 78° |
| 2026-05-06 15:27 | 50.03558 | 8.52337 | 375 ft | 12 kts | 72° |
| 2026-05-06 15:27 | 50.03586 | 8.52483 | 378 ft | 18 kts | 82° |
| 2026-05-06 15:27 | 50.03591 | 8.52549 | 378 ft | 7 kts | 83° |
| 2026-05-06 15:27 | 50.03611 | 8.52707 | 375 ft | 14 kts | 71° |
| 2026-05-06 15:28 | 50.03628 | 8.52832 | 372 ft | 0 kts | 110° |
| 2026-05-06 15:28 | 50.03624 | 8.52847 | 372 ft | 7 kts | 110° |
| 2026-05-06 15:28 | 50.03606 | 8.52887 | 371 ft | 9 kts | 143° |
| 2026-05-06 15:28 | 50.03604 | 8.53014 | 367 ft | 17 kts | 69° |
| 2026-05-06 15:29 | 50.03609 | 8.53035 | 368 ft | 0 kts | 70° |
| 2026-05-06 15:29 | 50.03618 | 8.53071 | 362 ft | 3 kts | 73° |
| 2026-05-06 15:36 | 50.03621 | 8.53088 | 363 ft | 8 kts | 73° |
| 2026-05-06 15:36 | 50.03635 | 8.53164 | 362 ft | 3 kts | 74° |
| 2026-05-06 15:36 | 50.03654 | 8.53262 | 360 ft | 13 kts | 70° |
| 2026-05-06 15:36 | 50.03681 | 8.53375 | 365 ft | 15 kts | 70° |
| 2026-05-06 15:37 | 50.03706 | 8.53533 | 361 ft | 0 kts | 103° |
| 2026-05-06 15:37 | 50.03705 | 8.53537 | 361 ft | 0 kts | 104° |
| 2026-05-06 15:37 | 50.03696 | 8.53563 | 359 ft | 7 kts | 130° |
| 2026-05-06 15:37 | 50.03649 | 8.53574 | 364 ft | 9 kts | 207° |
| 2026-05-06 15:38 | 50.03618 | 8.53503 | 362 ft | 1 kts | 215° |
| 2026-05-06 15:38 | 50.03594 | 8.53508 | 362 ft | 8 kts | 174° |
| 2026-05-06 15:38 | 50.03542 | 8.53500 | 363 ft | 15 kts | 196° |
| 2026-05-06 15:38 | 50.03489 | 8.53514 | 368 ft | 7 kts | 129° |
| 2026-05-06 15:39 | 50.03496 | 8.53624 | 370 ft | 15 kts | 70° |
| 2026-05-06 15:39 | 50.03543 | 8.53826 | 368 ft | 24 kts | 70° |
| 2026-05-06 15:39 | 50.03608 | 8.54093 | 374 ft | 24 kts | 69° |
| 2026-05-06 15:39 | 50.03652 | 8.54279 | 372 ft | 31 kts | 69° |
| 2026-05-06 15:40 | 50.03736 | 8.54630 | 367 ft | 38 kts | 70° |
| 2026-05-06 15:40 | 50.03824 | 8.55006 | 361 ft | 21 kts | 70° |
| 2026-05-06 15:40 | 50.03873 | 8.55209 | 362 ft | 22 kts | 70° |
| 2026-05-06 15:40 | 50.03929 | 8.55448 | 365 ft | 25 kts | 70° |
| 2026-05-06 15:41 | 50.03997 | 8.55727 | 358 ft | 30 kts | 70° |
| 2026-05-06 15:41 | 50.04057 | 8.55968 | 352 ft | 0 kts | 68° |
| 2026-05-06 15:41 | 50.04058 | 8.55971 | 351 ft | 0 kts | 69° |
| 2026-05-06 15:41 | 50.04067 | 8.56006 | 348 ft | 7 kts | 68° |
| 2026-05-06 15:42 | 50.04093 | 8.56100 | 350 ft | 11 kts | 51° |
| 2026-05-06 15:42 | 50.04157 | 8.56109 | 348 ft | 8 kts | 344° |
| 2026-05-06 15:42 | 50.04190 | 8.56093 | 353 ft | 0 kts | 344° |
| 2026-05-06 15:42 | 50.04190 | 8.56092 | 353 ft | 0 kts | 344° |
| 2026-05-06 15:43 | 50.04196 | 8.56089 | 353 ft | 2 kts | 342° |
| 2026-05-06 15:43 | 50.04226 | 8.56074 | 353 ft | 7 kts | 342° |
| 2026-05-06 15:43 | 50.04277 | 8.56069 | 349 ft | 9 kts | 6° |
| 2026-05-06 15:43 | 50.04329 | 8.56064 | 357 ft | 7 kts | 348° |
| 2026-05-06 15:44 | 50.04375 | 8.56038 | 354 ft | 8 kts | 338° |
| 2026-05-06 15:44 | 50.04411 | 8.56031 | 358 ft | 0 kts | 18° |
| 2026-05-06 15:44 | 50.04419 | 8.56036 | 356 ft | 2 kts | 21° |
| 2026-05-06 15:44 | 50.04437 | 8.56059 | 358 ft | 5 kts | 50° |
| 2026-05-06 15:45 | 50.04452 | 8.56107 | 356 ft | 0 kts | 84° |
| 2026-05-06 15:45 | 50.04447 | 8.56125 | 354 ft | 2 kts | 121° |
| 2026-05-06 15:45 | 50.04433 | 8.56137 | 363 ft | 4 kts | 150° |
| 2026-05-06 15:45 | 50.04417 | 8.56150 | 355 ft | 5 kts | 154° |
| 2026-05-06 15:46 | 50.04406 | 8.56158 | 357 ft | 2 kts | 154° |
| 2026-05-06 15:46 | 50.04400 | 8.56162 | 355 ft | 1 kts | 153° |
| 2026-05-06 15:46 | 50.04391 | 8.56169 | 356 ft | 0 kts | 155° |